Terminal Aerodrome Forecast
Issued by NWS Charleston, WV

Current Version | Previous Version | Text Only | Print | Product List | Glossary Off
Versions: 1 2 3 4 5 6 7 8 9 10 11 12 13 14 15 16 17 18 19 20 21 22

000
FTUS41 KRLX 280200 AAA
TAFPKB
TAF AMD
KPKB 280243Z 2803/2824 22004G10KT P6SM BKN080
     FM280600 23005KT P6SM -RA OVC035
     FM280800 24004KT 5SM -RA BR OVC025
     FM281100 VRB03KT 3SM -RA BR OVC008
     FM282000 36004KT 6SM -RA BR OVC015=

USA.gov is the U.S. government's official web portal to all federal, state and local government web resources and services.